Time;durP1;ratioP1;P1;durP2;ratioP2;P2;SDS_P1;SDS_P2;PMS_P1;PMS_P2;Temp;Humidity;BMP_temperature;BMP_pressure;BME280_temperature;BME280_humidity;BME280_pressure;Samples;Min_cycle;Max_cycle;Signal;HPM_P1;HPM_P2
2022/07/31 00:00:54;;;;;;;3.47;1.77;;;;;;;19.41;67.53;101814.78;5038517;28;20285;-75
2022/07/31 00:03:20;;;;;;;7.82;2.15;;;;;;;19.41;67.38;101812.13;5037821;28;20041;-75
2022/07/31 00:05:45;;;;;;;3.53;1.67;;;;;;;19.40;67.51;101799.81;5037275;28;20248;-75
2022/07/31 00:08:11;;;;;;;3.08;1.58;;;;;;;19.40;67.56;101805.13;5036488;28;20064;-75
2022/07/31 00:10:36;;;;;;;2.30;1.58;;;;;;;19.40;67.42;101797.16;5038148;28;20104;-75
2022/07/31 00:13:02;;;;;;;2.13;1.83;;;;;;;19.40;67.86;101795.34;5038214;28;20108;-75
2022/07/31 00:15:27;;;;;;;2.80;1.50;;;;;;;19.40;68.22;101794.50;5037687;28;20332;-75
2022/07/31 00:17:53;;;;;;;2.53;1.88;;;;;;;19.40;68.66;101791.84;5038472;28;20044;-75
2022/07/31 00:20:19;;;;;;;5.50;1.98;;;;;;;19.40;68.76;101787.38;5037402;28;20060;-75
2022/07/31 00:22:46;;;;;;;2.58;1.88;;;;;;;19.39;69.02;101785.63;5037211;28;20217;-75
2022/07/31 00:25:14;;;;;;;3.45;2.05;;;;;;;19.40;69.38;101783.88;5033674;28;20075;-74
2022/07/31 00:27:40;;;;;;;2.80;2.40;;;;;;;19.38;69.93;101786.59;5036491;28;20057;-75
2022/07/31 00:30:07;;;;;;;5.63;2.30;;;;;;;19.36;69.77;101781.38;5037735;28;20051;-75
2022/07/31 00:32:33;;;;;;;2.40;2.17;;;;;;;19.37;69.84;101791.09;5037692;28;20033;-75
2022/07/31 00:34:58;;;;;;;3.78;2.00;;;;;;;19.35;69.76;101777.00;5037867;28;20067;-75
2022/07/31 00:37:24;;;;;;;2.03;1.85;;;;;;;19.35;69.71;101778.81;5052627;28;20256;-75
2022/07/31 00:39:49;;;;;;;2.60;2.20;;;;;;;19.35;69.46;101774.34;5037869;28;20088;-75
2022/07/31 00:42:20;;;;;;;2.30;2.15;;;;;;;19.35;69.64;101777.00;5035961;28;20052;-75
2022/07/31 00:44:45;;;;;;;2.63;2.42;;;;;;;19.34;69.65;101772.66;5037415;28;20022;-74
2022/07/31 00:47:11;;;;;;;4.43;2.20;;;;;;;19.34;69.98;101771.81;5036945;28;20044;-75
2022/07/31 00:49:36;;;;;;;3.25;2.05;;;;;;;19.34;69.98;101783.28;5037669;28;20060;-74
2022/07/31 00:52:02;;;;;;;2.38;2.13;;;;;;;19.34;70.44;101777.13;5036574;28;20025;-74
2022/07/31 00:54:27;;;;;;;5.47;2.53;;;;;;;19.33;70.83;101768.28;5037001;28;20052;-75
2022/07/31 00:56:53;;;;;;;3.97;2.53;;;;;;;19.33;71.03;101762.97;5037481;28;20291;-75
2022/07/31 00:59:18;;;;;;;3.67;2.20;;;;;;;19.33;71.24;101756.81;5036523;28;20475;-75
2022/07/31 01:04:53;;;;;;;4.65;2.15;;;;;;;19.32;71.50;101755.13;5036792;28;20033;-75
2022/07/31 01:07:19;;;;;;;4.47;2.20;;;;;;;19.30;71.45;101747.25;5038895;28;20244;-74
2022/07/31 01:09:46;;;;;;;2.95;1.95;;;;;;;19.30;71.73;101749.03;5035952;28;20040;-75
2022/07/31 01:12:21;;;;;;;2.85;1.85;;;;;;;19.30;71.79;101747.25;5036830;28;20414;-74
2022/07/31 01:14:51;;;;;;;2.33;2.10;;;;;;;19.30;71.79;101751.69;5036932;28;20029;-75
2022/07/31 01:17:20;;;;;;;3.60;1.95;;;;;;;19.29;71.75;101753.50;5036235;28;20256;-75
2022/07/31 01:19:47;;;;;;;2.00;1.80;;;;;;;19.28;71.60;101754.47;5036950;28;20056;-75
2022/07/31 01:22:37;;;;;;;2.90;2.00;;;;;;;19.29;71.82;101757.97;5036422;28;20072;-75
2022/07/31 01:25:09;;;;;;;5.35;2.28;;;;;;;19.29;71.71;101756.16;5037051;28;20037;-75
2022/07/31 01:27:49;;;;;;;2.33;2.13;;;;;;;19.29;71.71;101761.47;5036164;28;20104;-75
2022/07/31 01:30:15;;;;;;;4.40;1.88;;;;;;;19.29;71.69;101750.84;5036260;28;20041;-75
2022/07/31 01:32:45;;;;;;;2.20;1.90;;;;;;;19.30;71.56;101751.69;5036493;28;20044;-75
2022/07/31 01:35:20;;;;;;;2.22;1.70;;;;;;;19.29;71.68;101756.16;5036256;28;20029;-74
2022/07/31 01:38:02;;;;;;;5.32;1.90;;;;;;;19.28;71.09;101754.47;5035403;28;20056;-75
2022/07/31 01:40:36;;;;;;;1.80;1.70;;;;;;;19.29;70.98;101755.31;5036069;28;20221;-75
2022/07/31 01:43:06;;;;;;;2.25;1.90;;;;;;;19.29;71.03;101752.66;5035388;28;20108;-75
2022/07/31 01:45:32;;;;;;;1.98;1.77;;;;;;;19.30;70.96;101744.59;5036366;28;20342;-74
2022/07/31 01:48:00;;;;;;;3.30;1.73;;;;;;;19.30;70.88;101738.41;5035626;28;20061;-74
2022/07/31 01:50:27;;;;;;;2.47;1.90;;;;;;;19.29;70.88;101740.22;5035829;28;20029;-74
2022/07/31 01:52:56;;;;;;;2.42;1.67;;;;;;;19.29;71.16;101742.88;5035211;28;20053;-75
2022/07/31 01:55:23;;;;;;;2.53;1.80;;;;;;;19.30;71.40;101739.28;5035898;28;20052;-74
2022/07/31 01:57:49;;;;;;;4.82;2.13;;;;;;;19.30;71.45;101730.47;5036141;28;20039;-75
2022/07/31 02:00:17;;;;;;;2.85;1.75;;;;;;;19.29;71.90;101731.41;5035863;28;20053;-75
2022/07/31 02:02:46;;;;;;;2.72;2.03;;;;;;;19.30;72.21;101736.63;5035967;28;20367;-74
2022/07/31 02:05:12;;;;;;;;;;;;;;;19.30;72.05;101722.47;5035944;28;20202;-74
2022/07/31 02:07:40;;;;;;;3.83;2.50;;;;;;;19.30;72.23;101730.47;5036076;28;19972;-74
2022/07/31 02:10:08;;;;;;;2.35;1.83;;;;;;;19.29;72.30;101726.09;5035928;28;20029;-74
2022/07/31 02:12:36;;;;;;;3.42;2.30;;;;;;;19.29;72.23;101720.81;5035658;28;20033;-75
2022/07/31 02:15:11;;;;;;;4.38;2.17;;;;;;;19.29;72.18;101710.19;5036055;28;20033;-75
2022/07/31 02:17:37;;;;;;;2.90;1.90;;;;;;;19.28;72.35;101700.50;5036230;28;20048;-75
2022/07/31 02:20:06;;;;;;;4.30;2.08;;;;;;;19.29;72.45;101697.75;5037497;28;20041;-77
2022/07/31 02:22:32;;;;;;;2.08;1.85;;;;;;;19.28;72.75;101706.69;5036382;28;20037;-77
2022/07/31 02:24:58;;;;;;;2.67;1.98;;;;;;;19.28;72.98;101696.06;5035857;28;20025;-77
2022/07/31 02:27:25;;;;;;;2.40;1.58;;;;;;;19.28;72.66;101697.84;5055809;28;20060;-77
2022/07/31 02:29:52;;;;;;;2.40;1.77;;;;;;;19.26;72.74;101689.97;5043291;28;20053;-77
2022/07/31 02:32:19;;;;;;;3.28;1.85;;;;;;;19.29;72.56;101700.41;5043635;28;20033;-77
2022/07/31 02:34:45;;;;;;;2.38;1.85;;;;;;;19.29;72.49;101708.38;5042425;28;20229;-77
2022/07/31 02:37:14;;;;;;;3.15;2.00;;;;;;;19.29;72.68;101694.25;5043318;28;20041;-77
2022/07/31 02:39:40;;;;;;;;;;;;;;;19.28;72.77;101689.88;5044114;28;20542;-77
2022/07/31 02:42:06;;;;;;;4.38;2.05;;;;;;;19.28;72.18;101685.44;5043502;28;19920;-77
2022/07/31 02:44:33;;;;;;;3.63;2.15;;;;;;;19.28;72.24;101692.53;5040979;28;20240;-77
2022/07/31 02:47:01;;;;;;;2.70;1.70;;;;;;;19.26;72.28;101689.13;5035176;28;20209;-77
2022/07/31 02:49:28;;;;;;;1.67;1.30;;;;;;;19.27;72.27;101697.00;5022442;28;20121;-77
2022/07/31 02:51:55;;;;;;;1.63;1.52;;;;;;;19.27;71.77;101706.78;5023486;28;20042;-77
2022/07/31 02:54:21;;;;;;;2.25;1.73;;;;;;;19.27;71.87;101707.63;5023408;28;20032;-77
2022/07/31 02:56:47;;;;;;;1.60;1.50;;;;;;;19.27;71.83;101698.81;5023820;28;20030;-77
2022/07/31 02:59:12;;;;;;;2.17;1.98;;;;;;;19.28;72.01;101689.88;5022039;28;20029;-77
2022/07/31 03:01:37;;;;;;;3.95;1.80;;;;;;;19.27;71.91;101693.50;5023573;28;20053;-76
2022/07/31 03:04:03;;;;;;;3.30;1.98;;;;;;;19.26;71.67;101684.66;5023835;28;20037;-77
2022/07/31 03:06:28;;;;;;;3.22;2.15;;;;;;;19.26;71.61;101679.34;5023181;28;20108;-77
2022/07/31 03:08:54;;;;;;;2.05;1.58;;;;;;;19.27;71.77;101669.59;5022112;28;20252;-77
2022/07/31 03:11:20;;;;;;;2.58;1.75;;;;;;;19.28;72.26;101676.59;5023015;28;20357;-77
2022/07/31 03:13:46;;;;;;;1.65;1.55;;;;;;;19.27;71.87;101670.44;5038714;28;20336;-77
2022/07/31 03:16:13;;;;;;;2.95;1.90;;;;;;;19.27;72.04;101673.09;5023015;28;20087;-77
2022/07/31 03:18:40;;;;;;;1.60;1.50;;;;;;;19.27;71.97;101669.59;5023233;28;20600;-77
2022/07/31 03:21:07;;;;;;;1.92;1.50;;;;;;;19.27;72.19;101680.22;5023199;28;20317;-77
2022/07/31 03:23:37;;;;;;;2.03;1.83;;;;;;;19.27;72.22;101682.88;5022818;28;20109;-77
2022/07/31 03:26:05;;;;;;;1.67;1.38;;;;;;;19.27;72.09;101680.22;5023377;28;20048;-77
2022/07/31 03:28:32;;;;;;;;;;;;;;;19.27;71.71;101688.19;5023333;28;20049;-77
2022/07/31 03:30:58;;;;;;;2.08;1.88;;;;;;;19.25;71.49;101677.66;5023281;28;20200;-77
2022/07/31 03:33:23;;;;;;;1.80;1.70;;;;;;;19.24;71.71;101678.59;5021600;28;20101;-77
2022/07/31 03:35:49;;;;;;;2.15;1.65;;;;;;;19.25;71.39;101680.31;5023001;28;20042;-76
2022/07/31 03:38:14;;;;;;;2.15;1.58;;;;;;;19.25;71.26;101676.81;5020045;28;20323;-77
2022/07/31 03:40:40;;;;;;;2.60;1.80;;;;;;;19.24;71.08;101681.25;5019855;28;20061;-77
2022/07/31 03:43:06;;;;;;;2.22;1.60;;;;;;;19.24;71.12;101683.91;5019948;28;20037;-77
2022/07/31 03:45:33;;;;;;;1.63;1.48;;;;;;;19.24;70.99;101672.44;5019995;28;20379;-77
2022/07/31 03:47:59;;;;;;;1.80;1.70;;;;;;;19.24;71.20;101675.09;5020049;28;20037;-77
2022/07/31 03:50:25;;;;;;;1.92;1.83;;;;;;;19.26;71.69;101675.84;5019363;28;20037;-77
2022/07/31 03:52:51;;;;;;;2.00;1.90;;;;;;;19.24;71.93;101675.94;5019792;28;20087;-77
2022/07/31 03:55:16;;;;;;;2.08;1.63;;;;;;;19.24;71.98;101673.28;5019617;28;20333;-77
2022/07/31 03:57:43;;;;;;;1.90;1.80;;;;;;;19.24;71.94;101675.94;5019645;28;20378;-77
2022/07/31 04:00:09;;;;;;;2.05;1.95;;;;;;;19.24;72.10;101673.28;5018863;28;20274;-77
2022/07/31 04:02:35;;;;;;;2.47;2.15;;;;;;;19.25;72.10;101663.53;5017913;28;20038;-77
2022/07/31 04:05:00;;;;;;;2.58;2.05;;;;;;;19.24;72.12;101667.97;5019449;28;20406;-77
2022/07/31 04:07:26;;;;;;;3.15;1.75;;;;;;;19.24;72.16;101665.31;5018993;28;20053;-77
2022/07/31 04:09:51;;;;;;;2.20;2.00;;;;;;;19.24;72.35;101661.81;5018172;28;20026;-77
2022/07/31 04:12:17;;;;;;;2.95;2.35;;;;;;;19.24;72.51;101656.50;5019385;28;20033;-77
2022/07/31 04:14:43;;;;;;;3.35;2.10;;;;;;;19.24;72.66;101661.81;5017978;28;20030;-77
2022/07/31 04:17:08;;;;;;;2.97;2.72;;;;;;;19.23;72.45;101658.31;5019480;28;20034;-77
2022/07/31 04:19:33;;;;;;;3.92;2.72;;;;;;;19.24;72.76;101651.19;5018692;28;20038;-77
2022/07/31 04:22:00;;;;;;;3.75;2.40;;;;;;;19.24;73.09;101652.03;5017996;28;20049;-76
2022/07/31 04:24:25;;;;;;;5.18;3.67;;;;;;;19.24;73.25;101656.50;5018329;28;20115;-76
2022/07/31 04:26:53;;;;;;;3.72;3.05;;;;;;;19.23;73.17;101653.00;5019562;28;20034;-76
2022/07/31 04:29:19;;;;;;;3.53;3.20;;;;;;;19.23;73.06;101646.81;5019146;28;20069;-77
2022/07/31 04:31:45;;;;;;;4.70;4.07;;;;;;;19.23;73.62;101646.81;5017855;28;20057;-77
2022/07/31 04:34:10;;;;;;;7.60;4.68;;;;;;;19.23;73.40;101644.16;5018744;28;20061;-77
2022/07/31 04:36:36;;;;;;;6.20;4.43;;;;;;;19.23;73.47;101645.03;5018794;28;20209;-77
2022/07/31 04:39:02;;;;;;;8.38;4.80;;;;;;;19.22;73.79;101650.44;5034467;28;20057;-76
2022/07/31 04:41:28;;;;;;;6.18;4.97;;;;;;;19.24;74.22;101664.47;5038065;28;20040;-77
2022/07/31 04:43:53;;;;;;;7.63;5.38;;;;;;;19.23;73.84;101649.47;5038469;28;20030;-77
2022/07/31 04:46:20;;;;;;;8.27;5.43;;;;;;;19.23;74.02;101649.47;5038459;28;20028;-77
2022/07/31 04:48:45;;;;;;;5.55;4.90;;;;;;;19.22;73.93;101645.97;5037182;28;20322;-77
2022/07/31 04:51:21;;;;;;;4.88;4.20;;;;;;;19.23;73.64;101645.03;5035657;28;20036;-76
2022/07/31 04:53:51;;;;;;;6.38;4.85;;;;;;;19.23;73.72;101639.72;5070325;28;20037;-77
2022/07/31 04:56:32;;;;;;;4.90;4.53;;;;;;;19.24;73.85;101640.56;5038082;28;20029;-77
2022/07/31 04:59:06;;;;;;;7.75;5.30;;;;;;;19.23;74.18;101639.72;5066423;28;20282;-77
2022/07/31 05:01:32;;;;;;;8.90;5.35;;;;;;;19.24;74.40;101648.53;5036658;28;20240;-77
2022/07/31 05:03:58;;;;;;;7.03;5.30;;;;;;;19.24;74.35;101641.41;5037959;28;20198;-76
2022/07/31 05:06:50;;;;;;;5.95;4.65;;;;;;;19.24;74.13;101637.91;5037926;28;20034;-77
2022/07/31 05:09:18;;;;;;;5.57;4.95;;;;;;;19.24;73.67;101644.06;5037892;28;20040;-77
2022/07/31 05:11:44;;;;;;;8.82;5.28;;;;;;;19.25;73.69;101647.59;5038226;28;20359;-77
2022/07/31 05:14:12;;;;;;;10.43;5.80;;;;;;;19.24;73.51;101644.06;5037968;28;20311;-77
2022/07/31 05:16:38;;;;;;;6.10;5.22;;;;;;;19.25;73.36;101642.28;5036597;28;20167;-76
2022/07/31 05:19:04;;;;;;;10.02;6.15;;;;;;;19.25;74.13;101635.16;5038138;28;20044;-77
2022/07/31 05:21:30;;;;;;;12.15;6.55;;;;;;;19.25;75.20;101637.81;5036013;28;20104;-77
2022/07/31 05:23:57;;;;;;;8.43;5.78;;;;;;;19.25;74.96;101629.84;5036119;28;20379;-77
2022/07/31 05:26:22;;;;;;;7.15;6.45;;;;;;;19.27;74.67;101645.69;5037329;28;20036;-77
2022/07/31 05:28:50;;;;;;;10.52;6.57;;;;;;;19.28;75.38;101642.06;5037781;28;20033;-77
2022/07/31 05:31:17;;;;;;;11.75;7.32;;;;;;;19.27;75.99;101638.56;5036068;28;20025;-77
2022/07/31 05:33:42;;;;;;;10.65;7.20;;;;;;;19.28;75.71;101634.09;5037525;28;20032;-77
2022/07/31 05:36:08;;;;;;;11.43;7.35;;;;;;;19.28;75.45;101634.97;5037503;28;20033;-77
2022/07/31 05:38:33;;;;;;;10.07;7.22;;;;;;;19.28;75.19;101634.09;5037463;28;20341;-77
2022/07/31 05:40:59;;;;;;;9.80;7.07;;;;;;;19.29;75.20;101630.50;5037886;28;20065;-77
2022/07/31 05:43:24;;;;;;;12.70;7.85;;;;;;;19.29;76.18;101634.00;5019515;28;20047;-77
2022/07/31 05:45:50;;;;;;;13.68;8.63;;;;;;;19.30;75.44;101633.06;5037843;28;20041;-77
2022/07/31 05:48:16;;;;;;;12.07;7.90;;;;;;;19.30;75.33;101632.19;5037754;28;20025;-77
2022/07/31 05:50:42;;;;;;;12.73;8.15;;;;;;;19.31;76.15;101629.44;5037280;28;20033;-76
2022/07/31 05:53:13;;;;;;;12.65;7.82;;;;;;;19.32;76.01;101630.31;5036521;28;20101;-77
2022/07/31 05:55:39;;;;;;;12.38;8.25;;;;;;;19.33;76.39;101626.69;5037122;28;20029;-77
2022/07/31 05:58:04;;;;;;;14.18;7.68;;;;;;;19.31;76.17;101617.97;5037067;28;20045;-77
2022/07/31 06:00:30;;;;;;;14.20;7.55;;;;;;;19.32;75.71;101620.53;5036635;28;20045;-76
2022/07/31 06:02:55;;;;;;;15.02;9.38;;;;;;;19.34;76.12;101625.75;5036901;28;20033;-77
2022/07/31 06:05:21;;;;;;;11.23;7.80;;;;;;;19.34;76.72;101626.59;5036614;28;20045;-77
2022/07/31 06:07:49;;;;;;;15.02;9.02;;;;;;;19.36;76.81;101631.81;5036936;28;20037;-77
2022/07/31 06:10:14;;;;;;;12.65;8.73;;;;;;;19.36;76.92;101631.81;5036871;28;20037;-77
2022/07/31 06:12:40;;;;;;;14.43;8.80;;;;;;;19.38;77.16;101637.88;5036962;28;20113;-77
2022/07/31 06:15:06;;;;;;;12.38;9.15;;;;;;;19.39;77.28;101636.91;5037175;28;20309;-77
2022/07/31 06:17:31;;;;;;;11.82;8.48;;;;;;;19.38;75.89;101632.56;5036680;28;20064;-77
2022/07/31 06:19:56;;;;;;;13.40;8.98;;;;;;;19.40;76.29;101635.13;5035657;28;20112;-77
2022/07/31 06:22:22;;;;;;;15.70;9.75;;;;;;;19.41;76.07;101634.16;5036407;28;20037;-76
2022/07/31 06:24:47;;;;;;;19.25;10.10;;;;;;;19.41;76.74;101632.38;5036699;28;20332;-77
2022/07/31 06:27:12;;;;;;;15.40;10.20;;;;;;;19.43;76.89;101626.94;5035705;28;20065;-76
2022/07/31 06:29:38;;;;;;;22.08;12.52;;;;;;;19.44;77.33;101631.31;5036853;28;20083;-76
2022/07/31 06:32:04;;;;;;;16.10;10.90;;;;;;;19.45;77.49;101633.03;5035561;28;20065;-76
2022/07/31 06:34:29;;;;;;;15.15;11.15;;;;;;;19.44;77.79;101626.84;5028661;28;20030;-76
2022/07/31 06:36:55;;;;;;;20.00;11.68;;;;;;;19.46;77.54;101630.25;5035260;28;20094;-76
2022/07/31 06:39:21;;;;;;;14.85;10.40;;;;;;;19.46;77.51;101630.25;5034831;28;20313;-76
2022/07/31 06:41:46;;;;;;;13.77;11.30;;;;;;;19.47;77.92;101620.50;5036681;28;20211;-76
2022/07/31 06:44:16;;;;;;;17.25;11.10;;;;;;;19.48;77.43;101622.19;5034824;28;20052;-76
2022/07/31 06:46:42;;;;;;;15.90;10.18;;;;;;;19.50;77.94;101628.22;5036441;28;20256;-76
2022/07/31 06:49:08;;;;;;;12.95;10.60;;;;;;;19.51;77.85;101627.28;5036144;28;20029;-76
2022/07/31 06:51:33;;;;;;;15.15;10.65;;;;;;;19.52;77.95;101621.03;5036399;28;20087;-76
2022/07/31 06:54:00;;;;;;;17.98;11.70;;;;;;;19.53;78.05;101620.91;5036186;28;20034;-76
2022/07/31 06:56:26;;;;;;;17.00;10.30;;;;;;;19.55;78.96;101623.47;5034716;28;20033;-76
2022/07/31 06:58:52;;;;;;;17.33;11.18;;;;;;;19.55;79.05;101626.13;5035992;28;20376;-76
2022/07/31 07:01:17;;;;;;;12.73;9.88;;;;;;;19.55;78.25;101623.47;5036031;28;20048;-76
2022/07/31 07:03:42;;;;;;;12.10;9.60;;;;;;;19.57;77.76;101626.88;5036242;28;20045;-76
2022/07/31 07:06:08;;;;;;;11.82;9.38;;;;;;;19.58;78.34;101630.41;5035220;28;20037;-76
2022/07/31 07:08:33;;;;;;;14.02;10.20;;;;;;;19.57;77.52;101632.19;5034662;28;20338;-76
2022/07/31 07:10:58;;;;;;;12.90;10.00;;;;;;;19.58;78.52;101633.91;5036307;28;20113;-76
2022/07/31 07:13:27;;;;;;;11.68;10.13;;;;;;;19.59;78.01;101637.41;5036063;28;20309;-76
2022/07/31 07:15:52;;;;;;;14.82;9.25;;;;;;;19.60;77.36;101633.81;5039823;28;20343;-76
2022/07/31 07:18:20;;;;;;;18.77;10.95;;;;;;;19.60;78.05;101629.34;5039637;28;20025;-76
2022/07/31 07:20:49;;;;;;;15.52;10.27;;;;;;;19.61;78.40;101622.22;5040128;28;20041;-76
2022/07/31 07:23:15;;;;;;;13.38;9.63;;;;;;;19.62;77.98;101627.44;5039040;28;20336;-76
2022/07/31 07:25:40;;;;;;;12.23;9.38;;;;;;;19.61;77.64;101628.41;5040270;28;20052;-76
2022/07/31 07:28:06;;;;;;;11.63;9.20;;;;;;;19.63;77.81;101617.66;5039589;28;20092;-76
2022/07/31 07:30:32;;;;;;;17.92;11.27;;;;;;;19.63;77.39;101618.53;5038156;28;20029;-76
2022/07/31 07:32:58;;;;;;;16.05;10.55;;;;;;;19.64;78.22;101614.88;5037183;28;20052;-76
2022/07/31 07:35:24;;;;;;;12.27;8.85;;;;;;;19.63;77.21;101613.22;5025606;28;20196;-76
2022/07/31 07:37:49;;;;;;;17.85;11.80;;;;;;;19.64;77.24;101612.22;5038199;28;20100;-76
2022/07/31 07:40:15;;;;;;;14.45;10.90;;;;;;;19.66;78.00;101614.78;5039401;28;20029;-76
2022/07/31 07:42:41;;;;;;;14.32;9.80;;;;;;;19.66;78.20;101612.97;5039783;28;20328;-76
2022/07/31 07:45:07;;;;;;;12.13;10.45;;;;;;;19.66;78.42;101607.66;5039312;28;20112;-76
2022/07/31 07:47:32;;;;;;;17.40;10.70;;;;;;;19.67;78.33;101609.38;5038676;28;20068;-76
2022/07/31 07:49:58;;;;;;;14.85;10.88;;;;;;;19.68;78.01;101612.88;5039288;28;20029;-76
2022/07/31 07:52:23;;;;;;;16.05;11.30;;;;;;;19.69;78.94;101620.75;5038668;28;20029;-76
2022/07/31 07:54:49;;;;;;;14.80;10.80;;;;;;;19.69;78.84;101614.59;5039324;28;20086;-76
2022/07/31 07:57:15;;;;;;;13.57;9.43;;;;;;;19.69;77.88;101622.56;5039045;28;20330;-76
2022/07/31 07:59:41;;;;;;;11.05;9.88;;;;;;;19.69;78.04;101618.09;5038793;28;20280;-76
2022/07/31 08:02:06;;;;;;;14.07;9.57;;;;;;;19.70;77.68;101613.63;5038149;28;20041;-76
2022/07/31 08:04:32;;;;;;;14.45;9.52;;;;;;;19.71;77.67;101613.53;5038411;28;20029;-76
2022/07/31 08:06:57;;;;;;;12.13;9.32;;;;;;;19.71;77.14;101610.03;5039088;28;20037;-76
2022/07/31 08:09:23;;;;;;;16.58;10.80;;;;;;;19.72;78.46;101609.09;5024148;28;20045;-76
2022/07/31 08:11:48;;;;;;;13.93;9.45;;;;;;;19.72;78.69;101606.44;5039055;28;20041;-78
2022/07/31 08:14:14;;;;;;;14.13;10.05;;;;;;;19.73;77.96;101609.00;5038775;28;20294;-76
2022/07/31 08:16:39;;;;;;;14.32;10.48;;;;;;;19.74;79.19;101600.06;5038441;28;20046;-76
2022/07/31 08:19:05;;;;;;;10.05;9.05;;;;;;;19.75;78.83;101595.59;5024559;28;20232;-76
2022/07/31 08:21:30;;;;;;;11.95;9.93;;;;;;;19.76;78.65;101599.97;5070216;28;20045;-76
2022/07/31 08:23:56;;;;;;;9.45;8.27;;;;;;;19.79;78.76;101596.25;5038440;28;20045;-76
2022/07/31 08:26:21;;;;;;;14.05;9.25;;;;;;;19.79;78.98;101598.91;5037689;28;20029;-76
2022/07/31 08:28:47;;;;;;;9.98;8.57;;;;;;;19.81;79.01;101599.66;5036941;28;20060;-76
2022/07/31 08:31:12;;;;;;;8.80;8.00;;;;;;;19.80;77.56;101600.63;5036988;28;20228;-76
2022/07/31 08:33:37;;;;;;;9.95;7.30;;;;;;;19.81;77.89;101597.88;5038768;28;20022;-76
2022/07/31 08:36:03;;;;;;;10.63;7.68;;;;;;;19.82;77.54;101599.56;5037068;28;20148;-76
2022/07/31 08:38:29;;;;;;;11.35;8.02;;;;;;;19.83;77.40;101608.38;5036975;28;20052;-77
2022/07/31 08:40:54;;;;;;;10.02;8.02;;;;;;;19.84;77.73;101610.94;5037337;28;20060;-76
2022/07/31 08:43:20;;;;;;;10.15;7.25;;;;;;;19.85;77.79;101611.81;5036340;28;20104;-76
2022/07/31 08:45:47;;;;;;;13.38;7.38;;;;;;;19.86;77.86;101616.13;5036952;28;20029;-76
2022/07/31 08:48:14;;;;;;;8.85;8.02;;;;;;;19.85;78.50;101614.47;5037893;28;20121;-76
2022/07/31 08:50:46;;;;;;;8.43;7.68;;;;;;;19.87;78.40;101613.38;5037846;28;20375;-76
2022/07/31 08:53:14;;;;;;;12.25;9.13;;;;;;;19.88;78.09;101619.53;5037431;28;20060;-76
2022/07/31 08:55:42;;;;;;;9.88;8.85;;;;;;;19.87;77.97;101610.72;5037815;28;20033;-76
2022/07/31 08:58:07;;;;;;;10.43;9.20;;;;;;;19.88;78.13;101611.56;5036549;28;20029;-76
2022/07/31 09:00:33;;;;;;;12.10;10.02;;;;;;;19.89;77.88;101607.97;5037949;28;20324;-76
2022/07/31 09:02:59;;;;;;;12.35;11.10;;;;;;;19.90;78.10;101612.31;5038240;28;20040;-76
2022/07/31 09:05:25;;;;;;;14.63;10.80;;;;;;;19.91;78.47;101603.41;5038063;28;20029;-77
2022/07/31 09:07:50;;;;;;;15.80;11.75;;;;;;;19.91;78.53;101606.06;5038177;28;20110;-77
2022/07/31 09:10:27;;;;;;;13.38;11.95;;;;;;;19.90;78.01;101602.56;5038096;28;20057;-78
2022/07/31 09:12:54;;;;;;;25.10;14.13;;;;;;;19.92;79.10;101607.78;5025871;28;20040;-77
2022/07/31 09:15:24;;;;;;;21.52;16.48;;;;;;;19.93;79.68;101596.16;5037065;28;20056;-77
2022/07/31 09:17:50;;;;;;;15.35;12.80;;;;;;;19.93;79.67;101598.81;5037662;28;20242;-77
2022/07/31 09:20:19;;;;;;;12.52;11.25;;;;;;;19.92;79.19;101595.31;5037033;28;20084;-77
2022/07/31 09:22:45;;;;;;;12.60;11.32;;;;;;;19.93;78.33;101599.66;5037045;28;20057;-77
2022/07/31 09:25:18;;;;;;;13.77;12.25;;;;;;;19.92;78.10;101597.13;5036748;28;20053;-77
2022/07/31 09:27:44;;;;;;;16.27;12.48;;;;;;;19.93;77.90;101596.16;5037320;28;20232;-77
2022/07/31 09:30:10;;;;;;;16.15;11.55;;;;;;;19.92;77.73;101595.31;5037465;28;20052;-77
2022/07/31 09:32:36;;;;;;;16.67;13.18;;;;;;;19.92;77.92;101590.00;5037378;28;20068;-77
2022/07/31 09:35:06;;;;;;;14.88;12.05;;;;;;;19.93;78.67;101604.97;5023583;28;20033;-77
2022/07/31 09:37:32;;;;;;;18.17;12.23;;;;;;;19.91;77.70;101604.25;5034553;28;20044;-77
2022/07/31 09:39:57;;;;;;;14.90;12.68;;;;;;;19.91;78.31;101600.75;5037237;28;20384;-77
2022/07/31 09:42:38;;;;;;;17.42;12.55;;;;;;;19.93;78.37;101606.81;5035114;28;20287;-77
2022/07/31 09:45:14;;;;;;;13.10;11.75;;;;;;;19.92;78.50;101610.44;5037239;28;20038;-77
2022/07/31 09:47:40;;;;;;;12.40;11.13;;;;;;;19.91;78.52;101606.91;5037004;28;20042;-77
2022/07/31 09:50:06;;;;;;;12.32;10.93;;;;;;;19.91;78.07;101598.09;5015877;28;20037;-77
2022/07/31 09:52:31;;;;;;;11.00;9.90;;;;;;;19.90;78.10;101601.69;5030295;28;20343;-77
2022/07/31 09:55:11;;;;;;;11.57;10.57;;;;;;;19.91;78.55;101604.25;5037131;28;20017;-77
2022/07/31 09:57:38;;;;;;;15.85;11.57;;;;;;;19.90;78.76;101593.72;5036561;28;20324;-77
2022/07/31 10:00:08;;;;;;;15.37;11.70;;;;;;;19.91;79.73;101606.06;5035697;28;20201;-77
2022/07/31 10:02:37;;;;;;;12.55;9.25;;;;;;;19.90;78.64;101599.03;5034992;28;20342;-77
2022/07/31 10:05:05;;;;;;;11.15;9.40;;;;;;;19.90;78.41;101601.69;5036891;28;20038;-77
2022/07/31 10:07:34;;;;;;;10.93;9.13;;;;;;;19.89;78.82;101600.84;5034887;28;20272;-77
2022/07/31 10:10:01;;;;;;;13.68;10.05;;;;;;;19.91;79.70;101608.72;5035273;28;20056;-77
2022/07/31 10:12:29;;;;;;;11.00;9.38;;;;;;;19.90;79.54;101607.00;5035946;28;20129;-77
2022/07/31 10:14:58;;;;;;;11.23;9.15;;;;;;;19.88;80.01;101599.16;5036354;28;20025;-77
2022/07/31 10:17:29;;;;;;;;;;;;;;;19.89;79.72;101605.31;5036211;28;20044;-77
2022/07/31 10:20:00;;;;;;;12.82;9.13;;;;;;;19.89;79.51;101600.00;5035250;28;20250;-77
2022/07/31 10:22:27;;;;;;;12.15;9.35;;;;;;;19.91;79.98;101600.75;5022299;28;20025;-77
2022/07/31 10:24:59;;;;;;;12.57;7.95;;;;;;;19.88;79.44;101599.16;5035870;28;20090;-77
2022/07/31 10:27:25;;;;;;;8.15;7.30;;;;;;;19.88;79.28;101592.97;5035610;28;20107;-77
2022/07/31 10:29:50;;;;;;;10.98;7.13;;;;;;;19.89;79.65;101597.34;5034741;28;20210;-77
2022/07/31 10:32:16;;;;;;;11.32;7.15;;;;;;;19.91;80.07;101603.41;5034738;28;20063;-77
2022/07/31 10:34:42;;;;;;;9.18;6.50;;;;;;;19.91;80.30;101587.44;5035775;28;20037;-77
2022/07/31 10:37:33;;;;;;;7.30;5.32;;;;;;;19.91;79.94;101593.59;5036078;28;20401;-77
2022/07/31 10:40:07;;;;;;;8.75;5.95;;;;;;;19.92;80.40;101587.34;5026841;28;20082;-77
2022/07/31 10:42:51;;;;;;;7.45;5.43;;;;;;;19.92;80.08;101587.34;5036058;28;20367;-77
2022/07/31 10:45:16;;;;;;;8.38;5.50;;;;;;;19.93;80.11;101593.50;5035814;28;20206;-77
2022/07/31 10:47:56;;;;;;;5.45;4.53;;;;;;;19.94;80.43;101597.88;5052270;28;20068;-77
2022/07/31 10:50:26;;;;;;;4.70;4.20;;;;;;;19.94;80.27;101596.06;5039886;28;20108;-77
2022/07/31 10:52:52;;;;;;;7.35;4.82;;;;;;;19.93;80.21;101591.69;5039989;28;20036;-77
2022/07/31 10:55:24;;;;;;;4.07;3.70;;;;;;;19.95;80.42;101583.63;5039627;28;20293;-77
2022/07/31 10:57:50;;;;;;;4.72;4.25;;;;;;;19.96;81.13;101579.16;5038594;28;20036;-77
2022/07/31 11:00:18;;;;;;;4.75;3.58;;;;;;;19.97;81.43;101583.50;5039543;28;20037;-77
2022/07/31 11:02:44;;;;;;;4.30;3.85;;;;;;;19.98;81.11;101582.56;5039529;28;20037;-77
2022/07/31 11:05:15;;;;;;;5.57;5.03;;;;;;;19.96;81.38;101574.69;5038395;28;20014;-77
2022/07/31 11:07:45;;;;;;;7.70;5.72;;;;;;;19.97;81.56;101578.19;5039156;28;20293;-77
2022/07/31 11:10:12;;;;;;;7.45;6.00;;;;;;;19.97;81.26;101580.84;5037999;28;20214;-77
2022/07/31 11:12:38;;;;;;;7.13;5.72;;;;;;;19.98;81.38;101580.75;5038076;28;20049;-77
2022/07/31 11:15:15;;;;;;;6.63;5.60;;;;;;;20.00;81.62;101573.53;5039373;28;20029;-77
2022/07/31 11:17:41;;;;;;;5.82;5.32;;;;;;;20.02;81.41;101586.72;5026163;28;20041;-77
2022/07/31 11:20:17;;;;;;;9.15;5.90;;;;;;;20.03;80.96;101573.31;5039446;28;20259;-77
2022/07/31 11:22:52;;;;;;;5.85;5.32;;;;;;;20.04;80.18;101574.16;5039482;28;20056;-77
2022/07/31 11:25:17;;;;;;;6.97;4.93;;;;;;;20.04;80.03;101566.19;5038649;28;20052;-77